createdAt,value
2022-11-25T00:02:24.239Z,22.50
2022-11-25T00:04:50.726Z,22.77
2022-11-25T00:07:17.159Z,23.65
2022-11-25T00:09:43.572Z,23.83
2022-11-25T00:12:09.953Z,24.17
2022-11-25T00:14:36.633Z,25.17
2022-11-25T00:17:03.279Z,23.90
2022-11-25T00:19:29.746Z,22.77
2022-11-25T00:21:56.128Z,22.00
2022-11-25T00:24:22.524Z,22.83
2022-11-25T00:26:48.928Z,24.27
2022-11-25T00:29:15.518Z,22.45
2022-11-25T00:31:42.472Z,22.70
2022-11-25T00:34:13.234Z,25.65
2022-11-25T00:36:39.841Z,23.75
2022-11-25T00:39:14.776Z,22.50
2022-11-25T00:42:00.678Z,23.83
2022-11-25T00:44:36.690Z,24.08
2022-11-25T00:47:12.839Z,23.42
2022-11-25T00:49:44.873Z,23.08
2022-11-25T00:52:15.308Z,22.80
2022-11-25T00:54:41.993Z,23.27
2022-11-25T00:57:08.425Z,23.75
2022-11-25T00:59:34.825Z,23.10
2022-11-25T01:02:01.305Z,23.75
2022-11-25T01:04:27.797Z,24.08
2022-11-25T01:06:56.650Z,24.80
2022-11-25T01:09:23.214Z,25.05
2022-11-25T01:11:51.317Z,25.02
2022-11-25T01:14:19.069Z,23.42
2022-11-25T01:16:46.697Z,24.35
2022-11-25T01:19:13.457Z,25.13
2022-11-25T01:21:40.131Z,26.02
2022-11-25T01:24:07.409Z,27.13
2022-11-25T01:26:35.300Z,25.92
2022-11-25T01:29:04.610Z,25.42
2022-11-25T01:31:36.180Z,27.55
2022-11-25T01:34:11.162Z,27.10
2022-11-25T01:36:37.714Z,27.55
2022-11-25T01:39:05.050Z,26.35
2022-11-25T01:41:33.761Z,25.80
2022-11-25T01:44:19.251Z,24.50
2022-11-25T01:47:10.566Z,25.90
2022-11-25T01:49:53.294Z,24.90
2022-11-25T01:52:31.135Z,24.63
2022-11-25T01:55:10.916Z,26.13
2022-11-25T01:57:42.775Z,25.05
2022-11-25T02:00:10.253Z,25.20
2022-11-25T02:02:49.308Z,25.08
2022-11-25T02:05:22.927Z,24.42
2022-11-25T02:07:51.090Z,25.13
2022-11-25T02:10:23.322Z,24.95
2022-11-25T02:12:49.752Z,25.02
2022-11-25T02:15:17.090Z,26.15
2022-11-25T02:17:44.425Z,25.38
2022-11-25T02:20:18.012Z,26.67
2022-11-25T02:22:48.926Z,26.90
2022-11-25T02:25:17.057Z,25.02
2022-11-25T02:27:46.262Z,26.13
2022-11-25T02:30:13.919Z,25.88
2022-11-25T02:32:45.098Z,25.48
2022-11-25T02:35:47.062Z,26.27
2022-11-25T02:38:18.972Z,25.08
2022-11-25T02:41:07.259Z,26.83
2022-11-25T02:43:34.256Z,27.73
2022-11-25T02:46:11.201Z,26.48
2022-11-25T02:49:07.504Z,25.50
2022-11-25T02:51:28.973Z,24.00
2022-11-25T02:53:56.728Z,24.90
2022-11-25T02:56:28.084Z,23.95
2022-11-25T02:58:54.550Z,25.15
2022-11-25T03:01:21.335Z,25.98
2022-11-25T03:03:49.501Z,25.42
2022-11-25T03:06:16.211Z,25.08
2022-11-25T03:08:42.834Z,24.02
2022-11-25T03:11:12.520Z,23.65
2022-11-25T03:13:39.124Z,24.25
2022-11-25T03:16:05.921Z,27.48
2022-11-25T03:18:32.469Z,26.88
2022-11-25T03:20:59.077Z,26.35
2022-11-25T03:23:25.637Z,26.08
2022-11-25T03:25:53.787Z,25.17
2022-11-25T03:28:20.392Z,26.65
2022-11-25T03:30:47.230Z,24.42
2022-11-25T03:33:13.672Z,25.65
2022-11-25T03:35:40.589Z,24.63
2022-11-25T03:38:07.380Z,26.48
2022-11-25T03:40:36.249Z,25.40
2022-11-25T03:43:02.643Z,25.52
2022-11-25T03:45:29.267Z,23.33
2022-11-25T03:47:58.466Z,25.48
2022-11-25T03:50:26.010Z,25.35
2022-11-25T03:52:53.906Z,24.45
2022-11-25T03:55:20.408Z,24.52
2022-11-25T03:57:47.231Z,25.33
2022-11-25T04:00:13.965Z,25.38
2022-11-25T04:03:02.539Z,22.77
2022-11-25T04:05:31.329Z,22.85
2022-11-25T04:08:01.714Z,26.10
2022-11-25T04:10:28.341Z,24.42
2022-11-25T04:12:54.837Z,23.95
2022-11-25T04:15:31.855Z,24.55
2022-11-25T04:17:58.985Z,25.02
2022-11-25T04:20:25.613Z,25.23
2022-11-25T04:22:58.350Z,24.90
2022-11-25T04:25:24.816Z,25.42
2022-11-25T04:27:52.088Z,25.98
2022-11-25T04:30:24.992Z,26.27
2022-11-25T04:32:52.833Z,23.83
2022-11-25T04:35:19.329Z,24.58
2022-11-25T04:37:50.063Z,25.08
2022-11-25T04:40:16.559Z,23.63
2022-11-25T04:42:47.996Z,23.70
2022-11-25T04:45:24.961Z,24.73
2022-11-25T04:47:53.683Z,24.88
2022-11-25T04:50:22.924Z,23.20
2022-11-25T04:53:03.002Z,24.30
2022-11-25T04:55:29.927Z,22.80
2022-11-25T04:57:57.211Z,23.35
2022-11-25T05:00:24.307Z,22.83
2022-11-25T05:02:50.774Z,21.52
2022-11-25T05:05:19.958Z,21.45
2022-11-25T05:07:46.571Z,22.33
2022-11-25T05:10:14.399Z,23.02
2022-11-25T05:12:44.977Z,21.13
2022-11-25T05:15:15.722Z,21.63
2022-11-25T05:17:44.916Z,21.83
2022-11-25T05:20:12.625Z,21.08
2022-11-25T05:22:39.186Z,20.88
2022-11-25T05:25:08.036Z,22.30
2022-11-25T05:27:39.921Z,21.77
2022-11-25T05:30:09.526Z,22.35
2022-11-25T05:32:37.024Z,21.70
2022-11-25T05:35:07.931Z,24.35
2022-11-25T05:37:34.514Z,22.75
2022-11-25T05:40:05.397Z,24.07
2022-11-25T05:42:52.484Z,23.30
2022-11-25T05:45:19.830Z,22.20
2022-11-25T05:47:46.253Z,22.45
2022-11-25T05:53:02.319Z,23.70
2022-11-25T05:55:28.817Z,23.08
2022-11-25T05:57:57.886Z,22.80
2022-11-25T06:00:26.743Z,23.60
2022-11-25T06:02:54.018Z,23.05
2022-11-25T06:05:21.625Z,22.45
2022-11-25T06:07:48.139Z,19.50
2022-11-25T06:10:15.858Z,22.13
2022-11-25T06:12:44.223Z,20.80
2022-11-25T06:15:11.388Z,20.33
2022-11-25T06:17:39.030Z,22.67
2022-11-25T06:20:11.172Z,24.13
2022-11-25T06:22:37.610Z,21.83
2022-11-25T06:25:04.659Z,24.80
2022-11-25T06:27:56.804Z,22.48
2022-11-25T06:30:20.644Z,22.10
2022-11-25T06:32:59.897Z,22.95
2022-11-25T06:35:26.780Z,23.35
2022-11-25T06:37:58.431Z,22.45
2022-11-25T06:40:24.813Z,22.40
2022-11-25T06:42:51.297Z,21.75
2022-11-25T06:45:17.732Z,22.80
2022-11-25T06:47:44.178Z,24.02
2022-11-25T06:50:10.802Z,24.75
2022-11-25T06:52:37.194Z,24.10
2022-11-25T06:55:04.314Z,24.48
2022-11-25T06:57:30.767Z,25.63
2022-11-25T06:59:57.166Z,23.50
2022-11-25T07:02:23.775Z,24.70
2022-11-25T07:05:05.399Z,27.17
2022-11-25T07:07:31.859Z,25.10
2022-11-25T07:09:58.268Z,24.83
2022-11-25T07:12:24.649Z,25.10
2022-11-25T07:14:51.675Z,26.92
2022-11-25T07:17:18.067Z,26.10
2022-11-25T07:19:45.502Z,26.38
2022-11-25T07:22:11.905Z,27.77
2022-11-25T07:24:38.444Z,25.77
2022-11-25T07:27:06.789Z,24.73
2022-11-25T07:30:18.675Z,25.98
2022-11-25T07:32:22.582Z,25.08
2022-11-25T07:34:51.301Z,25.27
2022-11-25T07:37:18.025Z,23.60
2022-11-25T07:39:44.419Z,24.88
2022-11-25T07:42:10.850Z,23.65
2022-11-25T07:44:37.238Z,25.73
2022-11-25T07:47:29.708Z,25.75
2022-11-25T07:49:56.126Z,27.10
2022-11-25T07:52:22.501Z,27.20
2022-11-25T07:54:48.892Z,25.90
2022-11-25T07:57:15.381Z,27.05
2022-11-25T07:59:41.932Z,25.65
2022-11-25T08:02:09.743Z,25.65
2022-11-25T08:04:37.097Z,26.45
2022-11-25T08:07:03.691Z,26.70
2022-11-25T08:09:30.097Z,26.25
2022-11-25T08:11:56.561Z,27.75
2022-11-25T08:14:22.965Z,24.75
2022-11-25T08:16:49.343Z,23.00
2022-11-25T08:19:17.392Z,21.52
2022-11-25T08:21:44.577Z,23.02
2022-11-25T08:24:19.543Z,21.55
2022-11-25T08:26:46.413Z,20.30
2022-11-25T08:29:15.309Z,22.08
2022-11-25T08:31:43.041Z,22.42
2022-11-25T08:34:16.913Z,22.15
2022-11-25T08:36:47.939Z,22.20
2022-11-25T08:39:50.678Z,22.35
2022-11-25T08:42:04.488Z,22.83
2022-11-25T08:44:30.895Z,23.38
2022-11-25T08:46:57.364Z,23.45
2022-11-25T08:49:26.598Z,22.40
2022-11-25T08:51:53.314Z,23.55
2022-11-25T08:54:19.707Z,22.33
2022-11-25T08:56:46.093Z,21.92
2022-11-25T08:59:13.247Z,24.02
2022-11-25T09:01:39.779Z,24.48
2022-11-25T09:04:06.232Z,21.55
2022-11-25T09:06:32.625Z,23.75
2022-11-25T09:09:00.365Z,23.92
2022-11-25T09:11:27.549Z,23.70
2022-11-25T09:13:54.095Z,23.38
2022-11-25T09:16:20.924Z,23.90
2022-11-25T09:18:52.370Z,23.85
2022-11-25T09:21:22.006Z,24.55
2022-11-25T09:23:50.167Z,25.10
2022-11-25T09:26:22.369Z,24.40
2022-11-25T09:28:48.915Z,23.73
2022-11-25T09:31:16.736Z,25.92
2022-11-25T09:33:43.371Z,24.77
2022-11-25T09:36:11.541Z,25.40
2022-11-25T09:38:42.988Z,27.35
2022-11-25T09:41:43.834Z,27.55
2022-11-25T09:44:53.144Z,27.17
2022-11-25T09:47:31.440Z,25.77
2022-11-25T09:50:18.692Z,27.15
2022-11-25T09:53:00.891Z,27.65
2022-11-25T09:55:33.464Z,27.90
2022-11-25T09:58:16.186Z,26.20
2022-11-25T10:00:48.222Z,25.52
2022-11-25T10:03:27.890Z,26.27
2022-11-25T10:06:03.240Z,25.60
2022-11-25T10:08:38.774Z,26.23
2022-11-25T10:11:21.870Z,25.92
2022-11-25T10:13:56.092Z,26.00
2022-11-25T10:16:35.621Z,24.33
2022-11-25T10:19:24.230Z,27.33
2022-11-25T10:21:51.814Z,26.48
2022-11-25T10:24:18.912Z,27.20
2022-11-25T10:26:51.113Z,27.45
2022-11-25T10:29:24.281Z,26.67
2022-11-25T10:32:09.284Z,26.20
2022-11-25T10:34:42.100Z,26.00
2022-11-25T10:37:23.043Z,26.42
2022-11-25T10:39:49.466Z,24.20
2022-11-25T10:42:21.893Z,25.50
2022-11-25T10:44:48.315Z,25.50
2022-11-25T10:47:42.608Z,27.77
2022-11-25T10:50:33.423Z,26.17
2022-11-25T10:53:12.794Z,27.40
2022-11-25T10:55:39.349Z,27.52
2022-11-25T10:58:29.224Z,26.17
2022-11-25T11:01:06.620Z,26.63
2022-11-25T11:03:33.550Z,26.50
2022-11-25T11:05:59.959Z,27.73
2022-11-25T11:08:29.040Z,25.90
2022-11-25T11:11:23.889Z,24.77
2022-11-25T11:13:58.466Z,23.70
2022-11-25T11:16:37.412Z,25.15
2022-11-25T11:19:04.986Z,23.85
2022-11-25T11:21:37.717Z,22.85
2022-11-25T11:24:26.062Z,22.45
2022-11-25T11:27:02.964Z,21.85
2022-11-25T11:29:29.361Z,20.33
2022-11-25T11:32:01.675Z,19.63
2022-11-25T11:34:59.295Z,17.42
2022-11-25T11:37:38.768Z,16.35
2022-11-25T11:40:38.462Z,16.02
2022-11-25T11:43:21.932Z,14.63
2022-11-25T11:46:24.105Z,14.88
2022-11-25T11:49:02.840Z,14.43
2022-11-25T11:51:44.547Z,13.15
2022-11-25T11:54:36.722Z,12.52
2022-11-25T11:57:14.526Z,12.98
2022-11-25T11:59:51.452Z,11.73
2022-11-25T12:02:37.306Z,11.35
2022-11-25T12:05:09.802Z,12.15
2022-11-25T12:07:57.244Z,12.60
2022-11-25T12:10:28.698Z,12.57
2022-11-25T12:13:22.514Z,11.57
2022-11-25T12:16:08.993Z,13.07
2022-11-25T12:19:12.992Z,12.35
2022-11-25T12:22:13.256Z,12.13
2022-11-25T12:24:51.146Z,11.60
2022-11-25T12:27:29.147Z,11.20
2022-11-25T12:30:04.397Z,11.10
2022-11-25T12:32:49.636Z,12.40
2022-11-25T12:35:21.870Z,12.00
2022-11-25T12:38:05.003Z,10.15
2022-11-25T12:40:41.280Z,11.40
2022-11-25T12:43:34.974Z,10.93
2022-11-25T12:46:18.758Z,10.93
2022-11-25T12:48:45.231Z,9.63
2022-11-25T12:51:50.990Z,10.40
2022-11-25T12:54:44.467Z,10.02
2022-11-25T12:57:37.969Z,9.60
2022-11-25T13:03:29.866Z,9.82
2022-11-25T13:06:34.673Z,10.30
2022-11-25T13:09:16.838Z,8.93
2022-11-25T13:12:17.829Z,9.48
2022-11-25T13:15:19.010Z,9.25
2022-11-25T13:20:28.700Z,8.45
2022-11-25T13:23:13.595Z,10.93
2022-11-25T13:25:42.291Z,9.30
2022-11-25T13:28:32.094Z,8.88
2022-11-25T13:31:13.651Z,8.68
2022-11-25T13:33:43.142Z,9.05
2022-11-25T13:36:24.133Z,8.85
2022-11-25T13:38:50.468Z,9.75
2022-11-25T13:41:19.837Z,9.82
2022-11-25T13:44:01.693Z,8.95
2022-11-25T13:46:39.957Z,8.35
2022-11-25T13:49:25.346Z,8.38
2022-11-25T13:51:54.417Z,8.30
2022-11-25T13:54:24.193Z,9.88
2022-11-25T13:57:13.441Z,9.45
2022-11-25T13:59:42.600Z,10.45
2022-11-25T14:02:27.471Z,9.93
2022-11-25T14:05:03.063Z,10.00
2022-11-25T14:08:08.158Z,11.25
2022-11-25T14:10:59.442Z,10.27
2022-11-25T14:16:37.894Z,11.30
2022-11-25T14:19:53.732Z,10.57
2022-11-25T14:22:40.687Z,12.25
2022-11-25T14:25:19.465Z,10.93
2022-11-25T14:27:50.249Z,11.93
2022-11-25T14:30:17.771Z,12.10
2022-11-25T14:32:55.909Z,14.45
2022-11-25T14:35:45.257Z,15.20
2022-11-25T14:38:33.902Z,16.50
2022-11-25T14:41:06.660Z,16.27
2022-11-25T14:43:42.229Z,17.48
2022-11-25T14:46:23.325Z,16.20
2022-11-25T14:51:26.031Z,14.23
2022-11-25T14:53:53.281Z,14.75
2022-11-25T14:56:31.148Z,12.93
2022-11-25T14:58:58.974Z,11.23
2022-11-25T15:01:27.909Z,12.65
2022-11-25T15:04:13.292Z,10.30
2022-11-25T15:06:45.084Z,7.88
2022-11-25T15:09:28.814Z,8.23
2022-11-25T15:12:01.834Z,8.65
2022-11-25T15:14:32.012Z,8.15
2022-11-25T15:16:59.146Z,9.17
2022-11-25T15:19:33.697Z,9.13
2022-11-25T15:24:55.052Z,9.23
2022-11-25T15:27:28.215Z,9.18
2022-11-25T15:29:56.505Z,8.77
2022-11-25T15:32:29.730Z,7.97
2022-11-25T15:34:59.087Z,8.95
2022-11-25T15:37:26.034Z,9.00
2022-11-25T15:40:30.275Z,10.65
2022-11-25T15:43:02.286Z,9.05
2022-11-25T15:45:50.223Z,8.35
2022-11-25T15:48:33.780Z,8.90
2022-11-25T15:51:04.934Z,9.38
2022-11-25T15:53:36.882Z,8.88
2022-11-25T15:56:06.812Z,8.45
2022-11-25T15:58:33.315Z,9.23
2022-11-25T16:01:15.027Z,8.40
2022-11-25T16:03:41.690Z,9.50
2022-11-25T16:06:23.599Z,9.80
2022-11-25T16:09:00.527Z,9.02
2022-11-25T16:11:33.045Z,10.10
2022-11-25T16:14:23.951Z,9.63
2022-11-25T16:16:50.977Z,10.02
2022-11-25T16:19:20.851Z,10.15
2022-11-25T16:21:53.018Z,9.77
2022-11-25T16:24:34.216Z,14.05
2022-11-25T16:27:04.408Z,13.15
2022-11-25T16:29:35.489Z,13.68
2022-11-25T16:32:14.014Z,12.32
2022-11-25T16:34:40.457Z,10.70
2022-11-25T16:37:07.255Z,10.50
2022-11-25T16:39:33.640Z,10.35
2022-11-25T16:42:04.042Z,9.65
2022-11-25T16:44:33.131Z,10.75
2022-11-25T16:46:59.524Z,12.18
2022-11-25T16:49:26.457Z,10.30
2022-11-25T16:51:53.137Z,9.50
2022-11-25T16:54:20.844Z,10.55
2022-11-25T16:56:50.243Z,10.55
2022-11-25T16:59:19.961Z,10.13
2022-11-25T17:01:46.656Z,10.55
2022-11-25T17:04:15.004Z,11.45
2022-11-25T17:06:42.193Z,11.88
2022-11-25T17:09:08.865Z,11.20
2022-11-25T17:11:46.106Z,11.90
2022-11-25T17:14:20.917Z,13.07
2022-11-25T17:16:47.550Z,12.23
2022-11-25T17:19:16.269Z,14.00
2022-11-25T17:21:43.955Z,11.85
2022-11-25T17:24:24.502Z,13.88
2022-11-25T17:26:56.967Z,13.55
2022-11-25T17:29:31.777Z,13.60
2022-11-25T17:32:00.397Z,14.32
2022-11-25T17:34:26.865Z,14.77
2022-11-25T17:36:53.426Z,14.88
2022-11-25T17:39:19.851Z,14.50
2022-11-25T17:41:49.678Z,15.20
2022-11-25T17:44:27.521Z,14.95
2022-11-25T17:46:55.478Z,16.80
2022-11-25T17:49:23.075Z,14.95
2022-11-25T17:51:49.535Z,15.88
2022-11-25T17:54:16.171Z,14.50
2022-11-25T17:56:49.194Z,16.48
2022-11-25T17:59:25.329Z,16.73
2022-11-25T18:01:51.864Z,16.23
2022-11-25T18:04:26.740Z,16.63
2022-11-25T18:06:53.646Z,17.88
2022-11-25T18:09:20.426Z,16.77
2022-11-25T18:11:50.649Z,17.92
2022-11-25T18:14:30.366Z,17.47
2022-11-25T18:17:00.774Z,19.15
2022-11-25T18:19:27.345Z,18.90
2022-11-25T18:22:00.062Z,23.23
2022-11-25T18:24:26.452Z,21.88
2022-11-25T18:26:53.551Z,21.88
2022-11-25T18:29:24.437Z,21.75
2022-11-25T18:31:53.615Z,19.65
2022-11-25T18:34:20.018Z,19.90
2022-11-25T18:36:46.426Z,20.38
2022-11-25T18:39:13.758Z,19.35
2022-11-25T18:41:41.868Z,21.65
2022-11-25T18:44:37.363Z,22.17
2022-11-25T18:47:05.486Z,20.83
2022-11-25T18:49:31.899Z,21.25
2022-11-25T18:51:58.300Z,20.42
2022-11-25T18:54:24.689Z,20.10
2022-11-25T18:56:52.119Z,20.45
2022-11-25T18:59:26.756Z,18.60
2022-11-25T19:01:53.185Z,19.42
2022-11-25T19:04:19.634Z,19.50
2022-11-25T19:06:46.026Z,21.13
2022-11-25T19:09:12.794Z,20.48
2022-11-25T19:11:43.451Z,19.17
2022-11-25T19:14:26.016Z,19.85
2022-11-25T19:16:52.654Z,19.83
2022-11-25T19:19:19.157Z,19.70
2022-11-25T19:21:45.618Z,19.08
2022-11-25T19:24:18.732Z,18.83
2022-11-25T19:26:49.074Z,18.60
2022-11-25T19:29:22.025Z,21.13
2022-11-25T19:31:51.060Z,19.85
2022-11-25T19:34:50.072Z,20.92
2022-11-25T19:37:20.292Z,20.83
2022-11-25T19:39:48.149Z,20.47
2022-11-25T19:42:17.424Z,19.13
2022-11-25T19:44:45.309Z,19.83
2022-11-25T19:47:19.019Z,19.58
2022-11-25T19:49:45.953Z,21.08
2022-11-25T19:52:15.946Z,19.30
2022-11-25T19:54:43.064Z,20.52
2022-11-25T19:57:18.202Z,21.15
2022-11-25T19:59:44.941Z,21.30
2022-11-25T20:02:29.420Z,22.13
2022-11-25T20:04:57.092Z,21.95
2022-11-25T20:07:23.726Z,22.00
2022-11-25T20:09:51.507Z,22.10
2022-11-25T20:12:29.633Z,24.65
2022-11-25T20:14:56.038Z,22.88
2022-11-25T20:17:30.429Z,22.83
2022-11-25T20:20:02.611Z,22.70
2022-11-25T20:22:32.906Z,23.63
2022-11-25T20:25:02.243Z,24.48
2022-11-25T20:27:29.212Z,23.85
2022-11-25T20:29:55.955Z,23.00
2022-11-25T20:32:30.063Z,23.40
2022-11-25T20:34:59.933Z,23.33
2022-11-25T20:37:29.298Z,21.10
2022-11-25T20:40:00.634Z,21.92
2022-11-25T20:42:27.377Z,21.65
2022-11-25T20:44:57.557Z,20.90
2022-11-25T20:47:26.205Z,21.17
2022-11-25T20:49:53.621Z,21.08
2022-11-25T20:52:31.862Z,22.15
2022-11-25T20:54:58.914Z,22.42
2022-11-25T20:57:26.255Z,21.02
2022-11-25T20:59:52.716Z,21.50
2022-11-25T21:02:21.461Z,20.38
2022-11-25T21:04:47.952Z,20.60
2022-11-25T21:07:15.772Z,20.92
2022-11-25T21:09:42.675Z,19.80
2022-11-25T21:12:18.881Z,20.50
2022-11-25T21:14:46.203Z,21.23
2022-11-25T21:17:12.575Z,20.25
2022-11-25T21:19:38.965Z,20.40
2022-11-25T21:22:05.347Z,19.92
2022-11-25T21:24:39.129Z,21.10
2022-11-25T21:27:14.571Z,22.45
2022-11-25T21:29:42.907Z,22.52
2022-11-25T21:32:22.414Z,22.10
2022-11-25T21:34:49.983Z,21.17
2022-11-25T21:37:27.647Z,22.30
2022-11-25T21:39:54.126Z,22.15
2022-11-25T21:42:21.757Z,22.80
2022-11-25T21:44:49.994Z,22.50
2022-11-25T21:47:22.947Z,22.90
2022-11-25T21:49:49.975Z,23.30
2022-11-25T21:52:16.870Z,22.90
2022-11-25T21:54:43.634Z,23.00
2022-11-25T21:57:27.672Z,23.95
2022-11-25T21:59:54.126Z,23.02
2022-11-25T22:02:23.925Z,22.98
2022-11-25T22:04:50.853Z,21.40
2022-11-25T22:07:17.645Z,21.88
2022-11-25T22:09:44.386Z,23.08
2022-11-25T22:12:26.083Z,22.05
2022-11-25T22:14:52.786Z,24.83
2022-11-25T22:17:19.771Z,24.55
2022-11-25T22:19:46.337Z,24.00
2022-11-25T22:22:15.030Z,24.52
2022-11-25T22:24:41.661Z,28.05
2022-11-25T22:27:22.262Z,25.75
2022-11-25T22:29:49.136Z,26.90
2022-11-25T22:32:17.017Z,27.00
2022-11-25T22:34:44.093Z,27.17
2022-11-25T22:37:22.414Z,26.25
2022-11-25T22:39:48.980Z,27.42
2022-11-25T22:42:28.175Z,28.80
2022-11-25T22:44:57.385Z,28.75
2022-11-25T22:47:30.036Z,29.52
2022-11-25T22:49:56.510Z,29.63
2022-11-25T22:52:27.294Z,33.33
2022-11-25T22:54:54.553Z,30.63
2022-11-25T22:57:21.092Z,29.48
2022-11-25T22:59:47.880Z,29.85
2022-11-25T23:02:20.504Z,29.38
2022-11-25T23:04:52.391Z,29.98
2022-11-25T23:07:20.227Z,30.17
2022-11-25T23:09:46.750Z,28.00
2022-11-25T23:12:14.315Z,29.60
2022-11-25T23:14:41.305Z,32.00
2022-11-25T23:17:19.023Z,31.70
2022-11-25T23:19:45.526Z,32.97
2022-11-25T23:22:12.330Z,32.92
2022-11-25T23:24:47.133Z,30.90
2022-11-25T23:27:14.077Z,30.02
2022-11-25T23:29:40.563Z,31.30
2022-11-25T23:32:17.390Z,29.83
2022-11-25T23:34:44.535Z,30.98
2022-11-25T23:37:13.597Z,29.08
2022-11-25T23:39:40.121Z,28.83
2022-11-25T23:42:16.525Z,28.15
2022-11-25T23:44:43.000Z,27.80
2022-11-25T23:47:16.737Z,28.83
2022-11-25T23:49:45.653Z,29.63
2022-11-25T23:52:16.271Z,28.52
2022-11-25T23:54:46.412Z,30.00
2022-11-25T23:57:13.998Z,28.55
2022-11-25T23:59:40.478Z,29.63
